Redlands, CA (92374)

12:01 PM PDT on July 20, 2017 (GMT -0700)
Redlands Ca | | Change Station

Elev 1496 ft 34.05 °N, 117.17 °W | Updated 10 seconds ago

Clear
Clear
87.6 °F
Feels Like 87 °F
N
0.9
Wind Variable Wind from ESE
Gusts 2.5 mph

Today
High -- | Low -- °F
--% Chance of Precip.
Yesterday
High -- | Low -- °F
Precip. -- in
Pressure 30.02 in
Visibility 5.0 miles
Clouds Clear
Heat Index 87 °F
Dew Point 60 °F
Humidity 39%
Rainfall 0.00 in
Snow Depth Not available.
5:51 AM 7:57 PM
Waning Crescent, 10% visible
METAR KSBD 201848Z 26004KT 5SM HZ SKC 32/14 A3002
Pressure 30.02 in
Visibility 5.0 miles
Clouds Clear
Heat Index 87 °F
Dew Point 60 °F
Humidity 39%
Rainfall 0.00 in
Snow Depth Not available.
5:51 AM 7:57 PM
Waning Crescent, 10% visible
METAR KSBD 201848Z 26004KT 5SM HZ SKC 32/14 A3002

Get Severe Weather Alerts

Thanks for signing up!

Be on the lookout for a verification email in your inbox.

You'll start receiving the daily forecast at 6 AM.

×

10-Day Weather Forecast

Almanac

Astronomy

Jul. 20, 2017 Rise Set
Actual Time
Civil Twilight
Nautical Twilight
Astronomical Twilight
Moon
Length of Visible Light
Length of Day
Tomorrow will be .
, % of the Moon is Illuminated

Today's Extremes

State Highs State Lows

Community

WunderPhotos

Category 6

Welcome to Category 6. This is the collective home for Weather Underground's featured writeups by Dr. Jeff Masters (right), Bob Henson (left), Chris Burt, and other regular contributors.

Nearby

Air Quality

  Air Quality AQ Index Pollutant
Not available.

Snow Depth

Station Depth Elevation

Earthquake Activity

City Distance Mag. Time & Date
Minimum magnitude displayed is 2.5.

Coastal Water Temperatures

Place Temperature

Stations

Nearby Weather Stations

Station Location Temp. Windchill Dew Point Humidity Wind Precip. Elev Updated Type
                   

Watches & Warnings

There are currently no watches in effect.